sensor_id;sensor_type;location;lat;lon;timestamp;pressure;altitude;pressure_sealevel;temperature
61595;BMP280;47397;48.194;11.632;2023-09-18T00:00:09;95569.31;;;16.18
61595;BMP280;47397;48.194;11.632;2023-09-18T00:01:10;95570.66;;;16.25
61595;BMP280;47397;48.194;11.632;2023-09-18T00:02:10;95602.50;;;16.21
61595;BMP280;47397;48.194;11.632;2023-09-18T00:03:12;95566.41;;;16.09
61595;BMP280;47397;48.194;11.632;2023-09-18T00:04:12;95559.97;;;16.17
61595;BMP280;47397;48.194;11.632;2023-09-18T00:05:13;95557.31;;;16.19
61595;BMP280;47397;48.194;11.632;2023-09-18T00:06:13;95568.41;;;16.19
61595;BMP280;47397;48.194;11.632;2023-09-18T00:07:13;95559.81;;;16.20
61595;BMP280;47397;48.194;11.632;2023-09-18T00:08:14;95557.09;;;16.23
61595;BMP280;47397;48.194;11.632;2023-09-18T00:09:15;95557.88;;;16.08
61595;BMP280;47397;48.194;11.632;2023-09-18T00:10:15;95550.22;;;16.24
61595;BMP280;47397;48.194;11.632;2023-09-18T00:11:16;95554.38;;;16.26
61595;BMP280;47397;48.194;11.632;2023-09-18T00:12:16;95555.84;;;16.31
61595;BMP280;47397;48.194;11.632;2023-09-18T00:13:17;95550.47;;;16.19
61595;BMP280;47397;48.194;11.632;2023-09-18T00:14:17;95546.09;;;16.21
61595;BMP280;47397;48.194;11.632;2023-09-18T00:15:17;95552.72;;;16.25
61595;BMP280;47397;48.194;11.632;2023-09-18T00:16:18;95584.22;;;16.27
61595;BMP280;47397;48.194;11.632;2023-09-18T00:17:18;95547.50;;;16.27
61595;BMP280;47397;48.194;11.632;2023-09-18T00:18:20;95543.53;;;16.21
61595;BMP280;47397;48.194;11.632;2023-09-18T00:19:21;95547.25;;;16.32
61595;BMP280;47397;48.194;11.632;2023-09-18T00:20:21;95556.25;;;16.23
61595;BMP280;47397;48.194;11.632;2023-09-18T00:21:21;95542.53;;;16.24
61595;BMP280;47397;48.194;11.632;2023-09-18T00:22:22;95547.41;;;16.29
61595;BMP280;47397;48.194;11.632;2023-09-18T00:23:22;95552.53;;;16.29
61595;BMP280;47397;48.194;11.632;2023-09-18T00:24:23;95551.63;;;16.30
61595;BMP280;47397;48.194;11.632;2023-09-18T00:25:23;95547.56;;;16.25
61595;BMP280;47397;48.194;11.632;2023-09-18T00:26:24;95546.81;;;16.23
61595;BMP280;47397;48.194;11.632;2023-09-18T00:27:25;95544.44;;;16.20
61595;BMP280;47397;48.194;11.632;2023-09-18T00:28:25;95539.81;;;16.27
61595;BMP280;47397;48.194;11.632;2023-09-18T00:29:25;95571.06;;;16.18
61595;BMP280;47397;48.194;11.632;2023-09-18T00:30:26;95541.28;;;16.15
61595;BMP280;47397;48.194;11.632;2023-09-18T00:31:26;95531.03;;;16.15
61595;BMP280;47397;48.194;11.632;2023-09-18T00:32:27;95531.59;;;16.20
61595;BMP280;47397;48.194;11.632;2023-09-18T00:33:29;95525.72;;;16.18
61595;BMP280;47397;48.194;11.632;2023-09-18T00:34:29;95522.41;;;16.16
61595;BMP280;47397;48.194;11.632;2023-09-18T00:35:30;95525.88;;;16.15
61595;BMP280;47397;48.194;11.632;2023-09-18T00:36:30;95522.41;;;16.16
61595;BMP280;47397;48.194;11.632;2023-09-18T00:37:31;95519.81;;;16.01
61595;BMP280;47397;48.194;11.632;2023-09-18T00:38:31;95524.19;;;15.99
61595;BMP280;47397;48.194;11.632;2023-09-18T00:39:32;95513.72;;;16.03
61595;BMP280;47397;48.194;11.632;2023-09-18T00:40:32;95519.00;;;16.00
61595;BMP280;47397;48.194;11.632;2023-09-18T00:41:32;95509.25;;;16.07
61595;BMP280;47397;48.194;11.632;2023-09-18T00:42:33;95507.69;;;16.04
61595;BMP280;47397;48.194;11.632;2023-09-18T00:43:33;95526.53;;;16.03
61595;BMP280;47397;48.194;11.632;2023-09-18T00:44:34;95504.63;;;16.13
61595;BMP280;47397;48.194;11.632;2023-09-18T00:45:38;95507.69;;;16.04
61595;BMP280;47397;48.194;11.632;2023-09-18T00:46:40;95507.03;;;16.16
61595;BMP280;47397;48.194;11.632;2023-09-18T00:47:40;95509.19;;;16.08
61595;BMP280;47397;48.194;11.632;2023-09-18T00:48:42;95507.03;;;16.16
61595;BMP280;47397;48.194;11.632;2023-09-18T00:49:46;95533.75;;;16.12
61595;BMP280;47397;48.194;11.632;2023-09-18T00:50:48;95500.56;;;16.09
61595;BMP280;47397;48.194;11.632;2023-09-18T00:51:49;95500.75;;;16.06
61595;BMP280;47397;48.194;11.632;2023-09-18T00:52:50;95503.13;;;16.09
61595;BMP280;47397;48.194;11.632;2023-09-18T00:53:50;95508.59;;;16.03
61595;BMP280;47397;48.194;11.632;2023-09-18T00:54:52;95506.94;;;16.02
61595;BMP280;47397;48.194;11.632;2023-09-18T00:55:54;95503.06;;;16.11
61595;BMP280;47397;48.194;11.632;2023-09-18T00:56:55;95501.81;;;16.02
61595;BMP280;47397;48.194;11.632;2023-09-18T00:57:56;95507.22;;;15.96
61595;BMP280;47397;48.194;11.632;2023-09-18T00:58:56;95501.06;;;16.00
61595;BMP280;47397;48.194;11.632;2023-09-18T00:59:57;95494.94;;;16.03
61595;BMP280;47397;48.194;11.632;2023-09-18T01:00:58;95505.03;;;16.06
61595;BMP280;47397;48.194;11.632;2023-09-18T01:01:59;95496.59;;;16.04
61595;BMP280;47397;48.194;11.632;2023-09-18T01:03:00;95493.03;;;16.06
61595;BMP280;47397;48.194;11.632;2023-09-18T01:04:03;95493.03;;;16.06
61595;BMP280;47397;48.194;11.632;2023-09-18T01:05:03;95494.03;;;16.04
61595;BMP280;47397;48.194;11.632;2023-09-18T01:06:04;95481.22;;;16.04
61595;BMP280;47397;48.194;11.632;2023-09-18T01:07:04;95491.47;;;16.04
61595;BMP280;47397;48.194;11.632;2023-09-18T01:08:05;95477.75;;;16.05
61595;BMP280;47397;48.194;11.632;2023-09-18T01:09:05;95474.28;;;16.06
61595;BMP280;47397;48.194;11.632;2023-09-18T01:10:07;95475.25;;;16.03
61595;BMP280;47397;48.194;11.632;2023-09-18T01:11:12;95472.69;;;16.03
61595;BMP280;47397;48.194;11.632;2023-09-18T01:12:18;95480.56;;;16.00
61595;BMP280;47397;48.194;11.632;2023-09-18T01:13:22;95477.06;;;16.01
61595;BMP280;47397;48.194;11.632;2023-09-18T01:14:29;95468.56;;;16.01
61595;BMP280;47397;48.194;11.632;2023-09-18T01:15:35;95472.53;;;16.06
61595;BMP280;47397;48.194;11.632;2023-09-18T01:16:41;95476.50;;;16.12
61595;BMP280;47397;48.194;11.632;2023-09-18T01:17:42;95475.69;;;16.11
61595;BMP280;47397;48.194;11.632;2023-09-18T01:18:48;95491.97;;;16.10
61595;BMP280;47397;48.194;11.632;2023-09-18T01:19:50;95469.31;;;16.03
61595;BMP280;47397;48.194;11.632;2023-09-18T01:20:51;95470.81;;;16.07
61595;BMP280;47397;48.194;11.632;2023-09-18T01:21:51;95472.69;;;16.03
61595;BMP280;47397;48.194;11.632;2023-09-18T01:22:53;95469.88;;;16.08
61595;BMP280;47397;48.194;11.632;2023-09-18T01:23:53;95469.56;;;16.14
61595;BMP280;47397;48.194;11.632;2023-09-18T01:24:53;95471.13;;;16.01
61595;BMP280;47397;48.194;11.632;2023-09-18T01:25:54;95473.78;;;15.99
61595;BMP280;47397;48.194;11.632;2023-09-18T01:26:54;95466.97;;;15.98
61595;BMP280;47397;48.194;11.632;2023-09-18T01:27:55;95467.56;;;16.03
61595;BMP280;47397;48.194;11.632;2023-09-18T01:28:55;95471.78;;;16.04
61595;BMP280;47397;48.194;11.632;2023-09-18T01:29:55;95474.19;;;16.07
61595;BMP280;47397;48.194;11.632;2023-09-18T01:30:56;95476.78;;;15.90
61595;BMP280;47397;48.194;11.632;2023-09-18T01:31:57;95474.63;;;15.82
61595;BMP280;47397;48.194;11.632;2023-09-18T01:32:58;95495.38;;;15.93
61595;BMP280;47397;48.194;11.632;2023-09-18T01:34:00;95479.34;;;15.90
61595;BMP280;47397;48.194;11.632;2023-09-18T01:35:02;95502.16;;;15.94
61595;BMP280;47397;48.194;11.632;2023-09-18T01:36:03;95480.00;;;15.93
61595;BMP280;47397;48.194;11.632;2023-09-18T01:37:05;95481.91;;;15.90
61595;BMP280;47397;48.194;11.632;2023-09-18T01:38:07;95477.69;;;15.89
61595;BMP280;47397;48.194;11.632;2023-09-18T01:39:08;95474.88;;;15.93
61595;BMP280;47397;48.194;11.632;2023-09-18T01:40:09;95480.69;;;15.97
61595;BMP280;47397;48.194;11.632;2023-09-18T01:41:09;95483.25;;;15.97
61595;BMP280;47397;48.194;11.632;2023-09-18T01:42:10;95481.16;;;15.88
61595;BMP280;47397;48.194;11.632;2023-09-18T01:43:10;95500.28;;;15.98
61595;BMP280;47397;48.194;11.632;2023-09-18T01:44:11;95482.66;;;15.92
61595;BMP280;47397;48.194;11.632;2023-09-18T01:45:11;95482.72;;;15.90
61595;BMP280;47397;48.194;11.632;2023-09-18T01:46:12;95485.81;;;15.97
61595;BMP280;47397;48.194;11.632;2023-09-18T01:47:16;95484.94;;;15.81
61595;BMP280;47397;48.194;11.632;2023-09-18T01:48:16;95484.47;;;15.90
61595;BMP280;47397;48.194;11.632;2023-09-18T01:49:26;95482.50;;;15.95
61595;BMP280;47397;48.194;11.632;2023-09-18T01:50:27;95475.13;;;15.89
61595;BMP280;47397;48.194;11.632;2023-09-18T01:51:27;95476.31;;;15.99
61595;BMP280;47397;48.194;11.632;2023-09-18T01:52:27;95467.28;;;15.92
61595;BMP280;47397;48.194;11.632;2023-09-18T01:53:29;95469.50;;;15.98
61595;BMP280;47397;48.194;11.632;2023-09-18T01:54:30;95483.19;;;15.99
61595;BMP280;47397;48.194;11.632;2023-09-18T01:55:30;95461.81;;;15.98
61595;BMP280;47397;48.194;11.632;2023-09-18T01:56:31;95462.72;;;15.97
61595;BMP280;47397;48.194;11.632;2023-09-18T01:57:32;95456.03;;;15.94
61595;BMP280;47397;48.194;11.632;2023-09-18T01:58:32;95444.53;;;15.86
61595;BMP280;47397;48.194;11.632;2023-09-18T01:59:33;95445.88;;;15.93
61595;BMP280;47397;48.194;11.632;2023-09-18T02:00:33;95447.50;;;15.78
61595;BMP280;47397;48.194;11.632;2023-09-18T02:01:34;95438.81;;;15.81
61595;BMP280;47397;48.194;11.632;2023-09-18T02:02:35;95440.72;;;15.77
61595;BMP280;47397;48.194;11.632;2023-09-18T02:03:36;95439.66;;;15.81
61595;BMP280;47397;48.194;11.632;2023-09-18T02:04:36;95437.47;;;15.74
61595;BMP280;47397;48.194;11.632;2023-09-18T02:05:36;95436.41;;;15.78
61595;BMP280;47397;48.194;11.632;2023-09-18T02:06:37;95431.88;;;15.83
61595;BMP280;47397;48.194;11.632;2023-09-18T02:07:37;95433.84;;;15.78
61595;BMP280;47397;48.194;11.632;2023-09-18T02:08:39;95440.22;;;15.71
61595;BMP280;47397;48.194;11.632;2023-09-18T02:09:40;95444.59;;;15.69
61595;BMP280;47397;48.194;11.632;2023-09-18T02:10:40;95443.50;;;15.73
61595;BMP280;47397;48.194;11.632;2023-09-18T02:11:42;95458.66;;;15.77
61595;BMP280;47397;48.194;11.632;2023-09-18T02:12:42;95441.44;;;15.63
61595;BMP280;47397;48.194;11.632;2023-09-18T02:13:42;95445.25;;;15.72
61595;BMP280;47397;48.194;11.632;2023-09-18T02:14:44;95449.47;;;15.73
61595;BMP280;47397;48.194;11.632;2023-09-18T02:15:44;95446.75;;;15.76
61595;BMP280;47397;48.194;11.632;2023-09-18T02:16:45;95436.06;;;15.68
61595;BMP280;47397;48.194;11.632;2023-09-18T02:17:45;95441.69;;;15.75
61595;BMP280;47397;48.194;11.632;2023-09-18T02:18:46;95437.31;;;15.77
61595;BMP280;47397;48.194;11.632;2023-09-18T02:19:46;95426.81;;;15.66
61595;BMP280;47397;48.194;11.632;2023-09-18T02:20:47;95431.69;;;15.70
61595;BMP280;47397;48.194;11.632;2023-09-18T02:21:47;95430.88;;;15.70
61595;BMP280;47397;48.194;11.632;2023-09-18T02:22:47;95433.50;;;15.68
61595;BMP280;47397;48.194;11.632;2023-09-18T02:23:50;95437.66;;;15.71
61595;BMP280;47397;48.194;11.632;2023-09-18T02:24:50;95431.19;;;15.63
61595;BMP280;47397;48.194;11.632;2023-09-18T02:25:55;95438.13;;;15.61
61595;BMP280;47397;48.194;11.632;2023-09-18T02:26:56;95427.22;;;15.56
61595;BMP280;47397;48.194;11.632;2023-09-18T02:27:56;95436.88;;;15.51
61595;BMP280;47397;48.194;11.632;2023-09-18T02:28:58;95439.84;;;15.61
61595;BMP280;47397;48.194;11.632;2023-09-18T02:29:59;95435.31;;;15.66
61595;BMP280;47397;48.194;11.632;2023-09-18T02:30:59;95435.47;;;15.63
61595;BMP280;47397;48.194;11.632;2023-09-18T02:31:59;95432.16;;;15.61
61595;BMP280;47397;48.194;11.632;2023-09-18T02:33:00;95433.81;;;15.62
61595;BMP280;47397;48.194;11.632;2023-09-18T02:34:00;95455.16;;;15.62
61595;BMP280;47397;48.194;11.632;2023-09-18T02:35:01;95424.16;;;15.67
61595;BMP280;47397;48.194;11.632;2023-09-18T02:36:01;95435.59;;;15.60
61595;BMP280;47397;48.194;11.632;2023-09-18T02:37:02;95433.03;;;15.60
61595;BMP280;47397;48.194;11.632;2023-09-18T02:38:02;95427.88;;;15.61
61595;BMP280;47397;48.194;11.632;2023-09-18T02:39:04;95428.69;;;15.62
61595;BMP280;47397;48.194;11.632;2023-09-18T02:40:06;95426.47;;;15.54
61595;BMP280;47397;48.194;11.632;2023-09-18T02:41:06;95415.78;;;15.46
61595;BMP280;47397;48.194;11.632;2023-09-18T02:42:07;95422.81;;;15.43
61595;BMP280;47397;48.194;11.632;2023-09-18T02:43:08;95421.75;;;15.47
61595;BMP280;47397;48.194;11.632;2023-09-18T02:44:08;95414.88;;;15.47
61595;BMP280;47397;48.194;11.632;2023-09-18T02:45:09;95415.41;;;15.54
61595;BMP280;47397;48.194;11.632;2023-09-18T02:46:09;95416.94;;;15.58
61595;BMP280;47397;48.194;11.632;2023-09-18T02:47:10;95416.69;;;15.45
61595;BMP280;47397;48.194;11.632;2023-09-18T02:48:10;95421.06;;;15.43
61595;BMP280;47397;48.194;11.632;2023-09-18T02:49:10;95411.56;;;15.45
61595;BMP280;47397;48.194;11.632;2023-09-18T02:50:11;95412.50;;;15.44
61595;BMP280;47397;48.194;11.632;2023-09-18T02:51:11;95419.25;;;15.45
61595;BMP280;47397;48.194;11.632;2023-09-18T02:52:12;95408.13;;;15.46
61595;BMP280;47397;48.194;11.632;2023-09-18T02:53:17;95407.94;;;15.49
61595;BMP280;47397;48.194;11.632;2023-09-18T02:54:18;95418.78;;;15.54
61595;BMP280;47397;48.194;11.632;2023-09-18T02:55:19;95412.81;;;15.38
61595;BMP280;47397;48.194;11.632;2023-09-18T02:56:19;95406.69;;;15.41
61595;BMP280;47397;48.194;11.632;2023-09-18T02:57:20;95400.63;;;15.26
61595;BMP280;47397;48.194;11.632;2023-09-18T02:58:21;95400.31;;;15.32
61595;BMP280;47397;48.194;11.632;2023-09-18T02:59:22;95391.81;;;15.31
61595;BMP280;47397;48.194;11.632;2023-09-18T03:00:22;95397.91;;;15.29
61595;BMP280;47397;48.194;11.632;2023-09-18T03:01:22;95390.00;;;15.33
61595;BMP280;47397;48.194;11.632;2023-09-18T03:02:23;95395.56;;;15.24
61595;BMP280;47397;48.194;11.632;2023-09-18T03:03:23;95402.78;;;15.33
61595;BMP280;47397;48.194;11.632;2023-09-18T03:04:24;95406.03;;;15.37
61595;BMP280;47397;48.194;11.632;2023-09-18T03:05:24;95402.56;;;15.38
61595;BMP280;47397;48.194;11.632;2023-09-18T03:06:25;95407.59;;;15.40
61595;BMP280;47397;48.194;11.632;2023-09-18T03:07:25;95401.97;;;15.33
61595;BMP280;47397;48.194;11.632;2023-09-18T03:08:25;95403.31;;;15.40
61595;BMP280;47397;48.194;11.632;2023-09-18T03:09:27;95400.97;;;15.36
61595;BMP280;47397;48.194;11.632;2023-09-18T03:10:28;95403.31;;;15.40
61595;BMP280;47397;48.194;11.632;2023-09-18T03:11:28;95393.22;;;15.37
61595;BMP280;47397;48.194;11.632;2023-09-18T03:12:28;95402.88;;;15.32
61595;BMP280;47397;48.194;11.632;2023-09-18T03:13:30;95395.69;;;15.39
61595;BMP280;47397;48.194;11.632;2023-09-18T03:14:31;95393.47;;;15.32
61595;BMP280;47397;48.194;11.632;2023-09-18T03:15:31;95409.97;;;15.27
61595;BMP280;47397;48.194;11.632;2023-09-18T03:16:32;95428.03;;;15.24
61595;BMP280;47397;48.194;11.632;2023-09-18T03:17:32;95416.66;;;15.29
61595;BMP280;47397;48.194;11.632;2023-09-18T03:18:33;95392.94;;;15.26
61595;BMP280;47397;48.194;11.632;2023-09-18T03:19:33;95405.59;;;15.29
61595;BMP280;47397;48.194;11.632;2023-09-18T03:20:34;95393.97;;;15.39
61595;BMP280;47397;48.194;11.632;2023-09-18T03:21:34;95390.91;;;15.32
61595;BMP280;47397;48.194;11.632;2023-09-18T03:22:35;95386.75;;;15.30
61595;BMP280;47397;48.194;11.632;2023-09-18T03:23:35;95381.16;;;15.22
61595;BMP280;47397;48.194;11.632;2023-09-18T03:24:37;95384.28;;;15.11
61595;BMP280;47397;48.194;11.632;2023-09-18T03:25:37;95386.84;;;15.11
61595;BMP280;47397;48.194;11.632;2023-09-18T03:26:37;95389.75;;;15.21
61595;BMP280;47397;48.194;11.632;2023-09-18T03:27:38;95381.78;;;15.27
61595;BMP280;47397;48.194;11.632;2023-09-18T03:28:38;95385.38;;;15.23
61595;BMP280;47397;48.194;11.632;2023-09-18T03:29:39;95379.50;;;15.21
61595;BMP280;47397;48.194;11.632;2023-09-18T03:30:39;95384.03;;;15.16
61595;BMP280;47397;48.194;11.632;2023-09-18T03:31:39;95387.44;;;15.16
61595;BMP280;47397;48.194;11.632;2023-09-18T03:32:40;95389.84;;;15.19
61595;BMP280;47397;48.194;11.632;2023-09-18T03:33:40;95385.25;;;15.26
61595;BMP280;47397;48.194;11.632;2023-09-18T03:34:41;95376.84;;;15.24
61595;BMP280;47397;48.194;11.632;2023-09-18T03:35:47;95379.97;;;15.12
61595;BMP280;47397;48.194;11.632;2023-09-18T03:36:48;95373.06;;;15.14
61595;BMP280;47397;48.194;11.632;2023-09-18T03:37:50;95375.47;;;15.17
61595;BMP280;47397;48.194;11.632;2023-09-18T03:38:51;95371.91;;;15.19
61595;BMP280;47397;48.194;11.632;2023-09-18T03:39:53;95363.16;;;15.23
61595;BMP280;47397;48.194;11.632;2023-09-18T03:40:53;95362.88;;;15.29
61595;BMP280;47397;48.194;11.632;2023-09-18T03:41:53;95364.47;;;15.15
61595;BMP280;47397;48.194;11.632;2023-09-18T03:42:54;95363.03;;;15.09
61595;BMP280;47397;48.194;11.632;2023-09-18T03:43:54;95362.16;;;15.10
61595;BMP280;47397;48.194;11.632;2023-09-18T03:44:55;95354.78;;;15.04
61595;BMP280;47397;48.194;11.632;2023-09-18T03:46:03;95356.28;;;15.08
61595;BMP280;47397;48.194;11.632;2023-09-18T03:47:04;95363.88;;;15.10
61595;BMP280;47397;48.194;11.632;2023-09-18T03:48:04;95361.00;;;15.16
61595;BMP280;47397;48.194;11.632;2023-09-18T03:49:05;95356.28;;;15.08
61595;BMP280;47397;48.194;11.632;2023-09-18T03:50:06;95356.81;;;14.97
61595;BMP280;47397;48.194;11.632;2023-09-18T03:51:07;95357.09;;;15.09
61595;BMP280;47397;48.194;11.632;2023-09-18T03:52:07;95350.78;;;14.98
61595;BMP280;47397;48.194;11.632;2023-09-18T03:53:09;95353.94;;;15.04
61595;BMP280;47397;48.194;11.632;2023-09-18T03:54:10;95345.97;;;15.10
61595;BMP280;47397;48.194;11.632;2023-09-18T03:55:12;95345.88;;;15.11
61595;BMP280;47397;48.194;11.632;2023-09-18T03:56:12;95346.88;;;15.09
61595;BMP280;47397;48.194;11.632;2023-09-18T03:57:13;95341.91;;;15.06
61595;BMP280;47397;48.194;11.632;2023-09-18T03:58:13;95343.28;;;14.95
61595;BMP280;47397;48.194;11.632;2023-09-18T03:59:13;95330.63;;;14.92
61595;BMP280;47397;48.194;11.632;2023-09-18T04:00:14;95332.44;;;14.90
61595;BMP280;47397;48.194;11.632;2023-09-18T04:01:15;95338.16;;;14.95
61595;BMP280;47397;48.194;11.632;2023-09-18T04:02:15;95333.19;;;14.92
61595;BMP280;47397;48.194;11.632;2023-09-18T04:03:16;95330.25;;;15.00
61595;BMP280;47397;48.194;11.632;2023-09-18T04:04:16;95340.41;;;15.01
61595;BMP280;47397;48.194;11.632;2023-09-18T04:05:17;95327.75;;;14.98
61595;BMP280;47397;48.194;11.632;2023-09-18T04:06:17;95341.53;;;14.96
61595;BMP280;47397;48.194;11.632;2023-09-18T04:07:17;95336.59;;;14.93
61595;BMP280;47397;48.194;11.632;2023-09-18T04:08:18;95339.66;;;14.82
61595;BMP280;47397;48.194;11.632;2023-09-18T04:09:18;95330.16;;;14.84
61595;BMP280;47397;48.194;11.632;2023-09-18T04:10:20;95325.66;;;14.89
61595;BMP280;47397;48.194;11.632;2023-09-18T04:11:20;95329.06;;;14.90
61595;BMP280;47397;48.194;11.632;2023-09-18T04:12:21;95329.88;;;14.90
61595;BMP280;47397;48.194;11.632;2023-09-18T04:13:21;95335.09;;;14.89
61595;BMP280;47397;48.194;11.632;2023-09-18T04:14:21;95328.22;;;14.89
61595;BMP280;47397;48.194;11.632;2023-09-18T04:15:22;95328.44;;;14.85
61595;BMP280;47397;48.194;11.632;2023-09-18T04:16:23;95322.78;;;14.78
61595;BMP280;47397;48.194;11.632;2023-09-18T04:17:23;95331.88;;;14.84
61595;BMP280;47397;48.194;11.632;2023-09-18T04:18:24;95328.44;;;14.85
61595;BMP280;47397;48.194;11.632;2023-09-18T04:19:24;95328.22;;;14.89
61595;BMP280;47397;48.194;11.632;2023-09-18T04:20:24;95324.69;;;14.92
61595;BMP280;47397;48.194;11.632;2023-09-18T04:21:25;95333.34;;;14.89
61595;BMP280;47397;48.194;11.632;2023-09-18T04:22:25;95320.75;;;14.85
61595;BMP280;47397;48.194;11.632;2023-09-18T04:23:27;95322.13;;;14.75
61595;BMP280;47397;48.194;11.632;2023-09-18T04:24:27;95322.63;;;14.81
61595;BMP280;47397;48.194;11.632;2023-09-18T04:25:29;95315.50;;;14.70
61595;BMP280;47397;48.194;11.632;2023-09-18T04:26:29;95314.28;;;14.78
61595;BMP280;47397;48.194;11.632;2023-09-18T04:27:30;95309.25;;;14.76
61595;BMP280;47397;48.194;11.632;2023-09-18T04:28:30;95309.94;;;14.62
61595;BMP280;47397;48.194;11.632;2023-09-18T04:29:31;95307.59;;;14.75
61595;BMP280;47397;48.194;11.632;2023-09-18T04:30:31;95305.34;;;14.69
61595;BMP280;47397;48.194;11.632;2023-09-18T04:31:31;95309.47;;;14.72
61595;BMP280;47397;48.194;11.632;2023-09-18T04:32:32;95307.00;;;14.70
61595;BMP280;47397;48.194;11.632;2023-09-18T04:33:33;95307.75;;;14.72
61595;BMP280;47397;48.194;11.632;2023-09-18T04:34:33;95306.34;;;14.66
61595;BMP280;47397;48.194;11.632;2023-09-18T04:35:33;95309.63;;;14.68
61595;BMP280;47397;48.194;11.632;2023-09-18T04:36:34;95312.13;;;14.70
61595;BMP280;47397;48.194;11.632;2023-09-18T04:37:36;95307.09;;;14.68
61595;BMP280;47397;48.194;11.632;2023-09-18T04:38:37;95306.56;;;14.62
61595;BMP280;47397;48.194;11.632;2023-09-18T04:39:37;95312.56;;;14.61
61595;BMP280;47397;48.194;11.632;2023-09-18T04:40:39;95307.97;;;14.67
61595;BMP280;47397;48.194;11.632;2023-09-18T04:41:39;95310.38;;;14.70
61595;BMP280;47397;48.194;11.632;2023-09-18T04:42:40;95309.63;;;14.68
61595;BMP280;47397;48.194;11.632;2023-09-18T04:43:40;95311.38;;;14.68
61595;BMP280;47397;48.194;11.632;2023-09-18T04:44:41;95307.16;;;14.67
61595;BMP280;47397;48.194;11.632;2023-09-18T04:45:41;95304.91;;;14.61
61595;BMP280;47397;48.194;11.632;2023-09-18T04:46:42;95336.94;;;14.68
61595;BMP280;47397;48.194;11.632;2023-09-18T04:47:42;95317.69;;;14.61
61595;BMP280;47397;48.194;11.632;2023-09-18T04:48:42;95309.56;;;14.70
61595;BMP280;47397;48.194;11.632;2023-09-18T04:49:43;95307.09;;;14.68
61595;BMP280;47397;48.194;11.632;2023-09-18T04:50:43;95314.84;;;14.67
61595;BMP280;47397;48.194;11.632;2023-09-18T04:51:44;95313.78;;;14.71
61595;BMP280;47397;48.194;11.632;2023-09-18T04:52:44;95316.34;;;14.71
61595;BMP280;47397;48.194;11.632;2023-09-18T04:53:45;95312.19;;;14.68
61595;BMP280;47397;48.194;11.632;2023-09-18T04:54:45;95317.31;;;14.68
61595;BMP280;47397;48.194;11.632;2023-09-18T04:55:47;95311.66;;;14.62
61595;BMP280;47397;48.194;11.632;2023-09-18T04:56:47;95316.13;;;14.58
61595;BMP280;47397;48.194;11.632;2023-09-18T04:57:48;95316.63;;;14.65
61595;BMP280;47397;48.194;11.632;2023-09-18T04:58:48;95315.66;;;14.67
61595;BMP280;47397;48.194;11.632;2023-09-18T04:59:49;95313.19;;;14.66
61595;BMP280;47397;48.194;11.632;2023-09-18T05:00:53;95309.03;;;14.63
61595;BMP280;47397;48.194;11.632;2023-09-18T05:01:54;95344.53;;;14.69
61595;BMP280;47397;48.194;11.632;2023-09-18T05:02:54;95319.78;;;14.70
61595;BMP280;47397;48.194;11.632;2023-09-18T05:03:55;95326.78;;;14.66
61595;BMP280;47397;48.194;11.632;2023-09-18T05:04:55;95312.72;;;14.75
61595;BMP280;47397;48.194;11.632;2023-09-18T05:05:56;95313.47;;;14.77
61595;BMP280;47397;48.194;11.632;2023-09-18T05:06:56;95322.34;;;14.70
61595;BMP280;47397;48.194;11.632;2023-09-18T05:07:57;95323.72;;;14.60
61595;BMP280;47397;48.194;11.632;2023-09-18T05:08:57;95322.06;;;14.59
61595;BMP280;47397;48.194;11.632;2023-09-18T05:09:57;95337.84;;;14.50
61595;BMP280;47397;48.194;11.632;2023-09-18T05:10:59;95346.72;;;14.60
61595;BMP280;47397;48.194;11.632;2023-09-18T05:12:00;95354.69;;;14.54
61595;BMP280;47397;48.194;11.632;2023-09-18T05:13:00;95324.38;;;14.63
61595;BMP280;47397;48.194;11.632;2023-09-18T05:14:01;95324.38;;;14.63
61595;BMP280;47397;48.194;11.632;2023-09-18T05:15:01;95328.81;;;14.60
61595;BMP280;47397;48.194;11.632;2023-09-18T05:16:01;95330.31;;;14.64
61595;BMP280;47397;48.194;11.632;2023-09-18T05:17:02;95337.09;;;14.65
61595;BMP280;47397;48.194;11.632;2023-09-18T05:18:03;95332.88;;;14.64
61595;BMP280;47397;48.194;11.632;2023-09-18T05:19:04;95333.47;;;14.69
61595;BMP280;47397;48.194;11.632;2023-09-18T05:20:05;95330.69;;;14.74
61595;BMP280;47397;48.194;11.632;2023-09-18T05:21:05;95348.22;;;14.64
61595;BMP280;47397;48.194;11.632;2023-09-18T05:22:07;95331.00;;;14.67
61595;BMP280;47397;48.194;11.632;2023-09-18T05:23:08;95330.09;;;14.68
61595;BMP280;47397;48.194;11.632;2023-09-18T05:24:09;95327.53;;;14.68
61595;BMP280;47397;48.194;11.632;2023-09-18T05:25:09;95334.31;;;14.69
61595;BMP280;47397;48.194;11.632;2023-09-18T05:26:11;95331.59;;;14.73
61595;BMP280;47397;48.194;11.632;2023-09-18T05:27:11;95324.69;;;14.75
61595;BMP280;47397;48.194;11.632;2023-09-18T05:28:12;95330.69;;;14.74
61595;BMP280;47397;48.194;11.632;2023-09-18T05:29:12;95355.31;;;14.76
61595;BMP280;47397;48.194;11.632;2023-09-18T05:30:14;95323.84;;;14.74
61595;BMP280;47397;48.194;11.632;2023-09-18T05:31:15;95335.44;;;14.81
61595;BMP280;47397;48.194;11.632;2023-09-18T05:32:15;95330.31;;;14.81
61595;BMP280;47397;48.194;11.632;2023-09-18T05:33:16;95328.34;;;14.86
61595;BMP280;47397;48.194;11.632;2023-09-18T05:34:16;95330.16;;;14.84
61595;BMP280;47397;48.194;11.632;2023-09-18T05:35:17;95332.59;;;14.87
61595;BMP280;47397;48.194;11.632;2023-09-18T05:36:17;95332.53;;;14.89
61595;BMP280;47397;48.194;11.632;2023-09-18T05:37:18;95333.47;;;14.86
61595;BMP280;47397;48.194;11.632;2023-09-18T05:38:18;95340.69;;;14.78
61595;BMP280;47397;48.194;11.632;2023-09-18T05:39:19;95337.47;;;14.75
61595;BMP280;47397;48.194;11.632;2023-09-18T05:40:19;95335.91;;;14.89
61595;BMP280;47397;48.194;11.632;2023-09-18T05:41:21;95341.16;;;14.86
61595;BMP280;47397;48.194;11.632;2023-09-18T05:42:21;95339.50;;;14.85
61595;BMP280;47397;48.194;11.632;2023-09-18T05:43:22;95342.97;;;15.01
61595;BMP280;47397;48.194;11.632;2023-09-18T05:44:22;95342.44;;;14.95
61595;BMP280;47397;48.194;11.632;2023-09-18T05:45:23;95340.72;;;14.95